Adak Island, Alaska
Current Conditions -  °F | °C
As of 1:56 AM on Sunday 23 Nov 2014 (Local Time) from PADK Reporting Station
Overcast Overcast  
Wind Chill: 32°   Ceiling: 4000
Heat Index: 37°   Visibility: 10mi
Dew Point: 27°   Wind: 7mph
Humidity: 65%   Direction: 330°NNW
Pressure: 29.7"   Gusts: NA
Location:  51.88°N, 176.65°W
Report Text: PADK 231056Z AUTO 33006KT 10SM FEW029 BKN040 OVC085 03/M03 A2970 RMK AO1
Loading
Personal Weather Stations






























Interactive Weather Map New forecast layout! Learn more

10-Day Weather Forecast

Advertisements
Track Severe Weather on mobile